Time;durP1;ratioP1;P1;durP2;ratioP2;P2;SDS_P1;SDS_P2;PMS_P1;PMS_P2;Temp;Humidity;BMP_temperature;BMP_pressure;BME280_temperature;BME280_humidity;BME280_pressure;Samples;Min_cycle;Max_cycle;Signal;HPM_P1;HPM_P2
2022/06/25 00:01:31;;;;;;;7.25;5.45;;;;;;;;;;10411989;28;20018;-73
2022/06/25 00:06:31;;;;;;;7.40;5.10;;;;;;;;;;10387898;28;20400;-75
2022/06/25 00:16:50;;;;;;;7.00;5.20;;;;;;;;;;10401081;28;20025;-75
2022/06/25 00:21:50;;;;;;;8.27;5.00;;;;;;;;;;10401965;28;20022;-75
2022/06/25 00:26:51;;;;;;;9.98;6.72;;;;;;;;;;10417514;28;20025;-74
2022/06/25 00:31:51;;;;;;;8.10;5.70;;;;;;;;;;10416607;28;20551;-76
2022/06/25 00:36:51;;;;;;;6.25;5.22;;;;;;;;;;10415141;28;20063;-67
2022/06/25 00:41:51;;;;;;;6.40;5.13;;;;;;;;;;10384351;28;20045;-73
2022/06/25 00:46:52;;;;;;;5.72;5.00;;;;;;;;;;10382553;28;20551;-76
2022/06/25 00:51:52;;;;;;;8.52;5.15;;;;;;;;;;10415153;28;20030;-69
2022/06/25 00:56:56;;;;;;;5.88;5.03;;;;;;;;;;10381872;28;20043;-73
2022/06/25 01:01:58;;;;;;;9.68;5.03;;;;;;;;;;10396535;28;20799;-72
2022/06/25 01:06:58;;;;;;;7.57;5.15;;;;;;;;;;10382451;28;20091;-73
2022/06/25 01:11:59;;;;;;;7.70;5.20;;;;;;;;;;10413162;28;20072;-75
2022/06/25 01:16:59;;;;;;;6.25;5.15;;;;;;;;;;10382859;28;20031;-78
2022/06/25 01:22:03;;;;;;;10.38;5.10;;;;;;;;;;10413461;28;20056;-76
2022/06/25 01:27:14;;;;;;;5.40;4.90;;;;;;;;;;10383386;28;20025;-75
2022/06/25 01:32:14;;;;;;;10.68;6.53;;;;;;;;;;10394130;28;20140;-74
2022/06/25 01:37:14;;;;;;;9.80;6.10;;;;;;;;;;10414570;28;20052;-74
2022/06/25 01:42:58;;;;;;;9.13;6.68;;;;;;;;;;10383264;28;20076;-73
2022/06/25 01:47:35;;;;;;;8.25;6.43;;;;;;;;;;10407422;28;20403;-71
2022/06/25 01:52:35;;;;;;;10.05;5.60;;;;;;;;;;10392811;28;20021;-73
2022/06/25 01:57:36;;;;;;;9.07;5.45;;;;;;;;;;10381301;28;20033;-75
2022/06/25 02:02:37;;;;;;;8.73;5.63;;;;;;;;;;10392346;28;20102;-71
2022/06/25 02:07:37;;;;;;;10.00;6.03;;;;;;;;;;10381071;28;20096;-73
2022/06/25 02:12:38;;;;;;;12.00;6.83;;;;;;;;;;10381508;28;20511;-74
2022/06/25 02:17:38;;;;;;;9.70;6.23;;;;;;;;;;10382645;28;20268;-73
2022/06/25 02:22:38;;;;;;;11.60;6.70;;;;;;;;;;10391098;28;20264;-74
2022/06/25 02:27:38;;;;;;;9.85;6.28;;;;;;;;;;10398375;28;20725;-75
2022/06/25 02:32:39;;;;;;;10.82;6.63;;;;;;;;;;10381306;28;20582;-73
2022/06/25 02:37:39;;;;;;;7.95;6.40;;;;;;;;;;10413540;28;20018;-77
2022/06/25 02:42:40;;;;;;;13.30;6.95;;;;;;;;;;10398202;28;22403;-70
2022/06/25 02:47:40;;;;;;;10.45;6.15;;;;;;;;;;10410549;28;20624;-72
2022/06/25 02:52:41;;;;;;;9.95;6.05;;;;;;;;;;10399254;28;20423;-69
2022/06/25 03:03:00;;;;;;;13.05;7.55;;;;;;;;;;10399443;28;20021;-73
2022/06/25 03:08:00;;;;;;;10.27;7.88;;;;;;;;;;10384258;28;20483;-73
2022/06/25 03:13:00;;;;;;;10.95;8.48;;;;;;;;;;10394598;28;20484;-74
2022/06/25 03:18:00;;;;;;;16.70;7.85;;;;;;;;;;10387508;28;20428;-74
2022/06/25 03:23:01;;;;;;;9.65;8.02;;;;;;;;;;10406451;28;20156;-71
2022/06/25 03:28:01;;;;;;;10.82;6.55;;;;;;;;;;10399481;28;20052;-74
2022/06/25 03:33:02;;;;;;;11.20;7.57;;;;;;;;;;10386470;28;20021;-69
2022/06/25 03:38:02;;;;;;;11.23;6.83;;;;;;;;;;10419913;28;20033;-74
2022/06/25 03:43:02;;;;;;;12.50;7.00;;;;;;;;;;10396335;28;20053;-70
2022/06/25 03:48:02;;;;;;;8.55;6.50;;;;;;;;;;10422247;28;20028;-69
2022/06/25 03:53:03;;;;;;;14.35;7.20;;;;;;;;;;10400733;28;20056;-74
2022/06/25 03:58:03;;;;;;;10.02;6.50;;;;;;;;;;10393157;28;20487;-74
2022/06/25 04:03:03;;;;;;;12.65;7.38;;;;;;;;;;10404169;28;20125;-75
2022/06/25 04:08:03;;;;;;;11.65;7.00;;;;;;;;;;10390294;28;20424;-69
2022/06/25 04:13:04;;;;;;;13.83;7.90;;;;;;;;;;10382436;28;20021;-74
2022/06/25 04:18:04;;;;;;;15.85;6.45;;;;;;;;;;10402988;28;20022;-74
2022/06/25 04:23:04;;;;;;;11.83;8.20;;;;;;;;;;10383384;28;20541;-74
2022/06/25 04:33:24;;;;;;;12.90;7.55;;;;;;;;;;10402377;28;20029;-74
2022/06/25 04:38:24;;;;;;;11.73;6.45;;;;;;;;;;10384853;28;20026;-74
2022/06/25 04:43:24;;;;;;;8.23;6.13;;;;;;;;;;10418884;28;20408;-70
2022/06/25 04:48:25;;;;;;;14.15;7.03;;;;;;;;;;10384157;28;20032;-74
2022/06/25 04:53:25;;;;;;;9.02;6.10;;;;;;;;;;10384130;28;20103;-74
2022/06/25 04:58:25;;;;;;;12.27;6.10;;;;;;;;;;10397268;28;20038;-74
2022/06/25 05:03:26;;;;;;;9.90;6.28;;;;;;;;;;10383153;28;20351;-72
2022/06/25 05:08:26;;;;;;;8.40;5.43;;;;;;;;;;10412237;28;20021;-74
2022/06/25 05:13:26;;;;;;;10.57;5.80;;;;;;;;;;10423807;28;20033;-73
2022/06/25 05:18:26;;;;;;;9.07;5.78;;;;;;;;;;10387992;28;20052;-75
2022/06/25 05:23:27;;;;;;;11.47;5.13;;;;;;;;;;10382494;28;20022;-73
2022/06/25 05:28:27;;;;;;;10.55;4.75;;;;;;;;;;10369585;28;20020;-69
2022/06/25 05:33:27;;;;;;;6.53;4.97;;;;;;;;;;10437891;28;20104;-74
2022/06/25 05:38:27;;;;;;;6.20;5.40;;;;;;;;;;10431524;28;20028;-71
2022/06/25 05:43:28;;;;;;;11.80;6.03;;;;;;;;;;10427880;28;20045;-69
2022/06/25 05:48:28;;;;;;;9.63;3.95;;;;;;;;;;10407237;28;20056;-72
2022/06/25 05:53:29;;;;;;;8.88;5.55;;;;;;;;;;10407813;28;20345;-68
2022/06/25 05:58:29;;;;;;;6.95;5.35;;;;;;;;;;10427459;28;20049;-73
2022/06/25 06:03:29;;;;;;;9.52;5.55;;;;;;;;;;10406037;28;20031;-75
2022/06/25 06:08:29;;;;;;;11.40;5.93;;;;;;;;;;10410215;28;20055;-73
2022/06/25 06:13:30;;;;;;;8.63;4.75;;;;;;;;;;10415460;28;20024;-72
2022/06/25 06:18:30;;;;;;;9.05;4.97;;;;;;;;;;10431439;28;20025;-74
2022/06/25 06:23:30;;;;;;;14.38;4.97;;;;;;;;;;10411079;28;20029;-70
2022/06/25 06:28:30;;;;;;;11.77;5.07;;;;;;;;;;10423311;28;20029;-74
2022/06/25 06:33:31;;;;;;;8.50;4.63;;;;;;;;;;10412783;28;20017;-69
2022/06/25 06:38:31;;;;;;;6.38;3.47;;;;;;;;;;10409551;28;20013;-70
2022/06/25 06:43:31;;;;;;;9.95;3.50;;;;;;;;;;10427575;28;20049;-73
2022/06/25 06:48:31;;;;;;;6.88;3.20;;;;;;;;;;10413466;28;20021;-75
2022/06/25 06:53:32;;;;;;;8.90;3.25;;;;;;;;;;10418763;28;20074;-69
2022/06/25 06:58:32;;;;;;;27.55;4.38;;;;;;;;;;10412141;28;20028;-74
2022/06/25 07:03:33;;;;;;;6.20;3.95;;;;;;;;;;10407300;28;20407;-73
2022/06/25 07:08:33;;;;;;;5.32;3.67;;;;;;;;;;10415746;28;20028;-75
2022/06/25 07:13:33;;;;;;;7.93;3.37;;;;;;;;;;10387170;28;20538;-76
2022/06/25 07:18:34;;;;;;;10.85;3.60;;;;;;;;;;10417729;28;20013;-74
2022/06/25 07:23:34;;;;;;;8.25;3.30;;;;;;;;;;10419353;28;20014;-74
2022/06/25 07:28:34;;;;;;;7.72;3.20;;;;;;;;;;10399137;28;20032;-75
2022/06/25 07:33:34;;;;;;;5.25;3.00;;;;;;;;;;10386552;28;20040;-74
2022/06/25 07:38:35;;;;;;;5.97;2.88;;;;;;;;;;10416074;28;20121;-74
2022/06/25 07:43:35;;;;;;;4.80;2.97;;;;;;;;;;10386811;28;20518;-76
2022/06/25 07:48:35;;;;;;;9.17;3.20;;;;;;;;;;10416867;28;20025;-75
2022/06/25 07:53:35;;;;;;;5.00;3.13;;;;;;;;;;10417591;28;20104;-73
2022/06/25 07:58:36;;;;;;;4.68;2.80;;;;;;;;;;10404371;28;20071;-74
2022/06/25 08:03:36;;;;;;;6.22;3.00;;;;;;;;;;10385763;28;20486;-75
2022/06/25 08:08:36;;;;;;;7.40;2.90;;;;;;;;;;10398467;28;20460;-74
2022/06/25 08:13:37;;;;;;;5.95;3.03;;;;;;;;;;10416157;28;20022;-69
2022/06/25 08:18:38;;;;;;;5.15;3.53;;;;;;;;;;10401835;28;20307;-73
2022/06/25 08:23:39;;;;;;;6.82;3.78;;;;;;;;;;10384730;28;20025;-75
2022/06/25 08:28:39;;;;;;;7.63;3.28;;;;;;;;;;10384561;28;20013;-75
2022/06/25 08:33:39;;;;;;;5.88;3.40;;;;;;;;;;10383061;28;20013;-74
2022/06/25 08:38:39;;;;;;;7.15;3.83;;;;;;;;;;10385864;28;20112;-77
2022/06/25 08:43:40;;;;;;;5.57;3.47;;;;;;;;;;10415022;28;20507;-69
2022/06/25 08:48:42;;;;;;;7.45;3.30;;;;;;;;;;10383833;28;20021;-67
2022/06/25 08:53:42;;;;;;;12.13;3.60;;;;;;;;;;10382203;28;20064;-74
2022/06/25 08:58:44;;;;;;;6.33;3.20;;;;;;;;;;10383779;28;20108;-75
2022/06/25 09:03:44;;;;;;;11.32;4.18;;;;;;;;;;10384271;28;20118;-73
2022/06/25 09:09:04;;;;;;;9.77;3.93;;;;;;;;;;10370068;28;20078;-69
2022/06/25 09:14:20;;;;;;;9.27;4.60;;;;;;;;;;10380616;28;20021;-73
2022/06/25 09:19:30;;;;;;;11.75;3.75;;;;;;;;;;10416891;28;20091;-73
2022/06/25 09:24:41;;;;;;;18.25;4.85;;;;;;;;;;10410299;28;20017;-77
2022/06/25 09:29:43;;;;;;;12.07;4.85;;;;;;;;;;10399260;28;20031;-73
2022/06/25 09:34:44;;;;;;;7.85;3.97;;;;;;;;;;10408546;28;20662;-72
2022/06/25 09:39:45;;;;;;;14.13;4.70;;;;;;;;;;10424624;28;20033;-73
2022/06/25 09:44:47;;;;;;;8.02;3.75;;;;;;;;;;10425231;28;20052;-74
2022/06/25 09:49:47;;;;;;;16.20;5.45;;;;;;;;;;10409679;28;20450;-77
2022/06/25 09:54:47;;;;;;;9.82;3.92;;;;;;;;;;10405881;28;20029;-75
2022/06/25 09:59:50;;;;;;;10.98;5.60;;;;;;;;;;10412980;28;20127;-70
2022/06/25 10:04:51;;;;;;;11.68;3.90;;;;;;;;;;10412336;28;20020;-71
2022/06/25 10:09:51;;;;;;;9.73;4.63;;;;;;;;;;10391585;28;20032;-72
2022/06/25 10:14:52;;;;;;;13.93;4.25;;;;;;;;;;10432738;28;20029;-70
2022/06/25 10:19:52;;;;;;;11.53;4.23;;;;;;;;;;10411107;28;20036;-70
2022/06/25 10:24:53;;;;;;;8.97;3.70;;;;;;;;;;10406964;28;20025;-72
2022/06/25 10:29:57;;;;;;;14.50;3.67;;;;;;;;;;10406306;28;20308;-70
2022/06/25 10:34:58;;;;;;;10.73;3.95;;;;;;;;;;10413800;28;20055;-74
2022/06/25 10:39:58;;;;;;;14.50;4.60;;;;;;;;;;10411691;28;20024;-70
2022/06/25 10:45:14;;;;;;;14.48;3.53;;;;;;;;;;10408156;28;20691;-72
2022/06/25 10:50:20;;;;;;;11.07;3.60;;;;;;;;;;10430797;28;20033;-74
2022/06/25 10:55:20;;;;;;;11.07;3.42;;;;;;;;;;10383262;28;20026;-72
2022/06/25 11:00:21;;;;;;;10.68;3.42;;;;;;;;;;10396828;28;20028;-75
2022/06/25 11:05:21;;;;;;;16.92;5.55;;;;;;;;;;10378943;28;20014;-73
2022/06/25 11:10:33;;;;;;;15.25;3.70;;;;;;;;;;10414563;28;20024;-73
2022/06/25 11:15:39;;;;;;;13.88;4.38;;;;;;;;;;10379026;28;20013;-75
2022/06/25 11:20:41;;;;;;;17.27;5.85;;;;;;;;;;10386528;28;20506;-70
2022/06/25 11:31:20;;;;;;;18.77;6.30;;;;;;;;;;10404138;28;20049;-73
2022/06/25 11:36:20;;;;;;;11.52;4.88;;;;;;;;;;10403841;28;20030;-75
2022/06/25 11:41:21;;;;;;;15.48;5.63;;;;;;;;;;10387132;28;20511;-68
2022/06/25 11:46:22;;;;;;;20.85;6.30;;;;;;;;;;10386331;28;20120;-74
2022/06/25 11:51:25;;;;;;;11.05;5.18;;;;;;;;;;10385895;28;20029;-71
2022/06/25 11:56:27;;;;;;;14.75;5.47;;;;;;;;;;10384848;28;20025;-74
2022/06/25 12:01:28;;;;;;;12.00;5.18;;;;;;;;;;10384557;28;20017;-75
2022/06/25 12:06:29;;;;;;;13.65;5.63;;;;;;;;;;10403170;28;20017;-74
2022/06/25 12:11:29;;;;;;;10.57;5.07;;;;;;;;;;10397752;28;20033;-75
2022/06/25 12:16:42;;;;;;;8.10;4.30;;;;;;;;;;10384916;28;20025;-72
2022/06/25 12:21:43;;;;;;;10.48;4.22;;;;;;;;;;10371639;28;20051;-73
2022/06/25 12:26:51;;;;;;;13.17;4.77;;;;;;;;;;10417762;28;20035;-76
2022/06/25 12:31:52;;;;;;;11.30;4.93;;;;;;;;;;10384857;28;20272;-75
2022/06/25 12:36:53;;;;;;;13.20;4.95;;;;;;;;;;10383218;28;20026;-74
2022/06/25 12:41:53;;;;;;;9.52;5.20;;;;;;;;;;10382731;28;20037;-75
2022/06/25 12:46:57;;;;;;;17.50;6.17;;;;;;;;;;10413472;28;20053;-74
2022/06/25 12:51:57;;;;;;;8.90;4.28;;;;;;;;;;10384609;28;20643;-75
2022/06/25 12:56:58;;;;;;;11.73;3.45;;;;;;;;;;10379000;28;20060;-73
2022/06/25 13:01:58;;;;;;;17.42;4.22;;;;;;;;;;10381746;28;20534;-74
2022/06/25 13:06:58;;;;;;;10.05;3.95;;;;;;;;;;10418289;28;20545;-69
2022/06/25 13:11:59;;;;;;;11.50;3.67;;;;;;;;;;10383371;28;20112;-74
2022/06/25 13:16:59;;;;;;;11.15;3.53;;;;;;;;;;10381443;28;20032;-73
2022/06/25 13:22:00;;;;;;;11.38;3.50;;;;;;;;;;10382311;28;20045;-76
2022/06/25 13:27:00;;;;;;;14.68;4.75;;;;;;;;;;10399123;28;20029;-68
2022/06/25 13:32:01;;;;;;;11.73;4.28;;;;;;;;;;10381747;28;20021;-73
2022/06/25 13:37:01;;;;;;;9.80;3.40;;;;;;;;;;10382620;28;20132;-71
2022/06/25 13:42:02;;;;;;;14.25;4.03;;;;;;;;;;10380209;28;20084;-74
2022/06/25 13:47:03;;;;;;;7.10;3.22;;;;;;;;;;10381503;28;20510;-74
2022/06/25 13:52:03;;;;;;;13.75;3.97;;;;;;;;;;10381438;28;20120;-74
2022/06/25 13:57:04;;;;;;;14.07;4.10;;;;;;;;;;10387491;28;20104;-70
2022/06/25 14:02:05;;;;;;;8.80;3.70;;;;;;;;;;10379085;28;20112;-70
2022/06/25 14:07:05;;;;;;;9.18;3.85;;;;;;;;;;10384422;28;20784;-73
2022/06/25 14:12:05;;;;;;;13.25;4.40;;;;;;;;;;10390489;28;20035;-74
2022/06/25 14:17:05;;;;;;;8.17;3.43;;;;;;;;;;10406468;28;20021;-74
2022/06/25 14:22:07;;;;;;;16.23;4.15;;;;;;;;;;10379353;28;20087;-73
2022/06/25 14:27:08;;;;;;;10.52;3.95;;;;;;;;;;10413270;28;20047;-73
2022/06/25 14:32:08;;;;;;;11.02;4.03;;;;;;;;;;10398080;28;20035;-74
2022/06/25 14:42:27;;;;;;;11.48;3.90;;;;;;;;;;10415361;28;20053;-77
2022/06/25 14:47:28;;;;;;;13.27;4.17;;;;;;;;;;10379942;28;20030;-73
2022/06/25 14:52:28;;;;;;;16.25;4.10;;;;;;;;;;10409802;28;20025;-74
2022/06/25 14:57:28;;;;;;;8.90;3.73;;;;;;;;;;10381022;28;20399;-74
2022/06/25 15:02:28;;;;;;;13.45;4.28;;;;;;;;;;10374343;28;20404;-74
2022/06/25 15:07:29;;;;;;;12.07;3.38;;;;;;;;;;10395236;28;20047;-73
2022/06/25 15:12:29;;;;;;;14.40;4.10;;;;;;;;;;10419443;28;20475;-70
2022/06/25 15:17:29;;;;;;;10.40;3.88;;;;;;;;;;10410141;28;20040;-74
2022/06/25 15:22:29;;;;;;;14.98;5.15;;;;;;;;;;10413853;28;20374;-75
2022/06/25 15:27:30;;;;;;;16.95;3.40;;;;;;;;;;10414514;28;20211;-73
2022/06/25 15:32:31;;;;;;;5.63;3.35;;;;;;;;;;10408087;28;20506;-74
2022/06/25 15:37:31;;;;;;;14.20;4.10;;;;;;;;;;10416270;28;20078;-71
2022/06/25 15:42:32;;;;;;;11.18;3.75;;;;;;;;;;10438370;28;20041;-70
2022/06/25 15:47:32;;;;;;;14.27;3.83;;;;;;;;;;10416638;28;20040;-75
2022/06/25 15:52:32;;;;;;;10.70;4.28;;;;;;;;;;10429315;28;20391;-69
2022/06/25 15:57:32;;;;;;;8.18;4.07;;;;;;;;;;10432240;28;20444;-73
2022/06/25 16:02:33;;;;;;;11.73;4.72;;;;;;;;;;10417268;28;20361;-73
2022/06/25 16:07:33;;;;;;;8.35;4.22;;;;;;;;;;10414261;28;20026;-69
2022/06/25 16:12:34;;;;;;;14.85;5.28;;;;;;;;;;10432231;28;20051;-74
2022/06/25 16:17:34;;;;;;;12.20;4.85;;;;;;;;;;10415371;28;20487;-73
2022/06/25 16:22:35;;;;;;;16.63;5.80;;;;;;;;;;10410941;28;20021;-69
2022/06/25 16:27:36;;;;;;;12.68;6.38;;;;;;;;;;10419879;28;20368;-68
2022/06/25 16:32:37;;;;;;;15.10;7.20;;;;;;;;;;10412498;28;20542;-73
2022/06/25 16:37:39;;;;;;;13.18;6.25;;;;;;;;;;10408816;28;20091;-70
2022/06/25 16:42:39;;;;;;;14.30;5.57;;;;;;;;;;10434907;28;20537;-67
2022/06/25 16:47:39;;;;;;;12.73;6.75;;;;;;;;;;10413145;28;20151;-72
2022/06/25 16:52:40;;;;;;;13.38;6.57;;;;;;;;;;10399459;28;20047;-77
2022/06/25 16:57:40;;;;;;;17.37;5.50;;;;;;;;;;10411033;28;20035;-72
2022/06/25 17:02:41;;;;;;;14.63;6.03;;;;;;;;;;10415491;28;20483;-74
2022/06/25 17:07:41;;;;;;;16.38;6.57;;;;;;;;;;10410186;28;20043;-70
2022/06/25 17:12:41;;;;;;;23.73;8.43;;;;;;;;;;10415254;28;20059;-70
2022/06/25 17:17:41;;;;;;;26.20;10.55;;;;;;;;;;10412151;28;20098;-73
2022/06/25 17:22:43;;;;;;;18.48;9.45;;;;;;;;;;10428209;28;20021;-71
2022/06/25 17:27:43;;;;;;;29.80;8.82;;;;;;;;;;10410953;28;20036;-70
2022/06/25 17:32:44;;;;;;;14.05;6.32;;;;;;;;;;10405697;28;20064;-69
2022/06/25 17:37:44;;;;;;;15.00;6.38;;;;;;;;;;10411469;28;20347;-71
2022/06/25 17:42:44;;;;;;;15.95;7.18;;;;;;;;;;10411995;28;20427;-69
2022/06/25 17:47:44;;;;;;;17.63;6.15;;;;;;;;;;10409196;28;20029;-72
2022/06/25 17:52:45;;;;;;;12.95;6.18;;;;;;;;;;10412167;28;20870;-73
2022/06/25 17:57:46;;;;;;;24.23;6.17;;;;;;;;;;10412338;28;20057;-69
2022/06/25 18:02:46;;;;;;;17.67;5.85;;;;;;;;;;10412585;28;20140;-70
2022/06/25 18:07:47;;;;;;;20.73;6.80;;;;;;;;;;10403781;28;20031;-73
2022/06/25 18:12:47;;;;;;;15.68;7.07;;;;;;;;;;10396209;28;20303;-75
2022/06/25 18:17:47;;;;;;;17.57;6.23;;;;;;;;;;10409160;28;20036;-76
2022/06/25 18:22:48;;;;;;;25.85;7.35;;;;;;;;;;10409855;28;20017;-73
2022/06/25 18:27:48;;;;;;;20.90;8.30;;;;;;;;;;10409978;28;20020;-72
2022/06/25 18:32:48;;;;;;;10.75;5.07;;;;;;;;;;10426218;28;20033;-71
2022/06/25 18:37:49;;;;;;;9.48;3.67;;;;;;;;;;10426926;28;20017;-76
2022/06/25 18:42:49;;;;;;;8.80;3.90;;;;;;;;;;10414047;28;20450;-74
2022/06/25 18:47:49;;;;;;;8.77;3.97;;;;;;;;;;10435220;28;20513;-69
2022/06/25 18:52:50;;;;;;;17.08;4.50;;;;;;;;;;10436937;28;20104;-72
2022/06/25 18:57:50;;;;;;;7.85;3.88;;;;;;;;;;10435005;28;20232;-74
2022/06/25 19:02:51;;;;;;;13.95;4.60;;;;;;;;;;10420406;28;20024;-71
2022/06/25 19:07:51;;;;;;;13.23;5.20;;;;;;;;;;10415735;28;20021;-68
2022/06/25 19:12:51;;;;;;;13.10;5.30;;;;;;;;;;10406892;28;20418;-74
2022/06/25 19:17:52;;;;;;;16.38;5.13;;;;;;;;;;10413122;28;20028;-70
2022/06/25 19:22:52;;;;;;;13.43;5.15;;;;;;;;;;10407788;28;20108;-74
2022/06/25 19:27:52;;;;;;;15.98;5.47;;;;;;;;;;10417303;28;20035;-68
2022/06/25 19:32:52;;;;;;;12.23;5.15;;;;;;;;;;10418534;28;20743;-73
2022/06/25 19:37:53;;;;;;;10.90;5.13;;;;;;;;;;10418361;28;20067;-76
2022/06/25 19:42:53;;;;;;;13.50;4.63;;;;;;;;;;10414748;28;20037;-71
2022/06/25 19:47:53;;;;;;;11.63;5.05;;;;;;;;;;10413543;28;20279;-75
2022/06/25 19:52:55;;;;;;;10.80;3.97;;;;;;;;;;10408510;28;20510;-74
2022/06/25 19:57:56;;;;;;;20.65;5.53;;;;;;;;;;10412475;28;20032;-75
2022/06/25 20:02:56;;;;;;;14.23;6.13;;;;;;;;;;10416346;28;20495;-70
2022/06/25 20:07:56;;;;;;;11.32;4.70;;;;;;;;;;10432962;28;20090;-73
2022/06/25 20:12:56;;;;;;;13.15;4.53;;;;;;;;;;10399684;28;20024;-71
2022/06/25 20:17:57;;;;;;;9.00;4.40;;;;;;;;;;10422584;28;20594;-77
2022/06/25 20:22:57;;;;;;;13.75;4.32;;;;;;;;;;10385391;28;20495;-73
2022/06/25 20:27:57;;;;;;;9.82;4.10;;;;;;;;;;10403453;28;20022;-74
2022/06/25 20:32:59;;;;;;;10.85;4.45;;;;;;;;;;10415861;28;20017;-76
2022/06/25 20:37:59;;;;;;;10.63;5.38;;;;;;;;;;10376824;28;20095;-70
2022/06/25 20:42:59;;;;;;;16.50;5.63;;;;;;;;;;10414853;28;20057;-74
2022/06/25 20:48:00;;;;;;;16.07;5.53;;;;;;;;;;10416511;28;20018;-74
2022/06/25 20:53:00;;;;;;;13.43;5.20;;;;;;;;;;10409087;28;20060;-75
2022/06/25 20:58:00;;;;;;;8.40;4.68;;;;;;;;;;10382078;28;20279;-77
2022/06/25 21:08:20;;;;;;;17.48;5.85;;;;;;;;;;10406269;28;20072;-74
2022/06/25 21:13:20;;;;;;;11.35;5.03;;;;;;;;;;10382865;28;20109;-73
2022/06/25 21:18:21;;;;;;;13.02;4.90;;;;;;;;;;10411591;28;20523;-74
2022/06/25 21:23:22;;;;;;;8.25;5.05;;;;;;;;;;10382327;28;20014;-74
2022/06/25 21:28:24;;;;;;;12.50;4.22;;;;;;;;;;10413246;28;20112;-73
2022/06/25 21:33:24;;;;;;;12.80;5.07;;;;;;;;;;10382747;28;20014;-75
2022/06/25 21:38:24;;;;;;;17.00;4.85;;;;;;;;;;10401535;28;20480;-74
2022/06/25 21:43:25;;;;;;;9.30;5.00;;;;;;;;;;10381146;28;20527;-73
2022/06/25 21:48:25;;;;;;;15.60;4.95;;;;;;;;;;10381988;28;20022;-75
2022/06/25 21:53:25;;;;;;;9.50;4.20;;;;;;;;;;10414543;28;20112;-76
2022/06/25 21:58:26;;;;;;;9.15;4.38;;;;;;;;;;10400096;28;20021;-71
2022/06/25 22:03:26;;;;;;;11.10;5.57;;;;;;;;;;10398275;28;20022;-74
2022/06/25 22:08:26;;;;;;;12.48;6.90;;;;;;;;;;10414301;28;20073;-76
2022/06/25 22:13:27;;;;;;;17.00;7.15;;;;;;;;;;10382590;28;20032;-73
2022/06/25 22:18:27;;;;;;;16.07;9.17;;;;;;;;;;10390155;28;20106;-74
2022/06/25 22:23:28;;;;;;;16.48;8.65;;;;;;;;;;10380443;28;20351;-76
2022/06/25 22:28:29;;;;;;;10.55;6.82;;;;;;;;;;10378114;28;20026;-73
2022/06/25 22:33:29;;;;;;;11.23;6.07;;;;;;;;;;10380348;28;20546;-69
2022/06/25 22:38:29;;;;;;;11.45;6.00;;;;;;;;;;10411139;28;21886;-76
2022/06/25 22:43:29;;;;;;;13.75;5.85;;;;;;;;;;10410603;28;20188;-71
2022/06/25 22:48:30;;;;;;;10.88;5.18;;;;;;;;;;10410047;28;20025;-74
2022/06/25 22:53:30;;;;;;;11.27;4.95;;;;;;;;;;10379851;28;20017;-74
2022/06/25 22:58:30;;;;;;;10.85;5.57;;;;;;;;;;10411069;28;20082;-73
2022/06/25 23:03:30;;;;;;;14.35;6.18;;;;;;;;;;10413355;28;20014;-70
2022/06/25 23:08:31;;;;;;;17.23;8.30;;;;;;;;;;10380391;28;20030;-73
2022/06/25 23:13:31;;;;;;;16.63;7.32;;;;;;;;;;10413570;28;20443;-70
2022/06/25 23:18:31;;;;;;;9.10;5.33;;;;;;;;;;10399091;28;20440;-73
2022/06/25 23:23:32;;;;;;;12.52;5.50;;;;;;;;;;10410943;28;20459;-68
2022/06/25 23:28:32;;;;;;;12.43;5.30;;;;;;;;;;10400755;28;20392;-73
2022/06/25 23:33:32;;;;;;;10.33;5.30;;;;;;;;;;10410836;28;20100;-75
2022/06/25 23:38:32;;;;;;;9.65;5.68;;;;;;;;;;10387265;28;20032;-74
2022/06/25 23:43:33;;;;;;;16.50;5.90;;;;;;;;;;10417147;28;20079;-73
2022/06/25 23:48:33;;;;;;;8.55;4.32;;;;;;;;;;10385354;28;20033;-73
2022/06/25 23:53:33;;;;;;;11.45;5.50;;;;;;;;;;10403720;28;20029;-72
2022/06/25 23:58:33;;;;;;;13.80;5.32;;;;;;;;;;10384862;28;20071;-76
